Time;durP1;ratioP1;P1;durP2;ratioP2;P2;SDS_P1;SDS_P2;PMS_P1;PMS_P2;Temp;Humidity;BMP_temperature;BMP_pressure;BME280_temperature;BME280_humidity;BME280_pressure;Samples;Min_cycle;Max_cycle;Signal;HPM_P1;HPM_P2
2021/12/07 00:00:50;;;;;;;27.80;11.68;;;2.30;99.90;;;;;;5039936;23;20128;-69
2021/12/07 00:03:16;;;;;;;15.80;10.35;;;;;;;;;;5052017;28;20044;-69
2021/12/07 00:05:42;;;;;;;16.73;10.60;;;2.50;99.90;;;;;;5051586;28;20380;-68
2021/12/07 00:08:08;;;;;;;16.92;11.02;;;;;;;;;;5051842;28;20037;-69
2021/12/07 00:10:35;;;;;;;16.30;10.23;;;;;;;;;;5051762;28;20124;-68
2021/12/07 00:13:01;;;;;;;14.82;10.25;;;2.40;99.90;;;;;;5052084;28;20052;-69
2021/12/07 00:15:30;;;;;;;16.92;10.90;;;;;;;;;;5052836;28;20122;-68
2021/12/07 00:17:56;;;;;;;16.17;10.07;;;;;;;;;;5051575;28;20044;-69
2021/12/07 00:20:22;;;;;;;17.55;11.05;;;;;;;;;;5051523;28;20526;-69
2021/12/07 00:22:51;;;;;;;15.93;9.98;;;;;;;;;;5051790;28;20425;-69
2021/12/07 00:25:17;;;;;;;15.77;10.70;;;;;;;;;;5051232;28;20502;-68
2021/12/07 00:27:43;;;;;;;16.83;10.82;;;;;;;;;;5052800;28;20076;-69
2021/12/07 00:30:11;;;;;;;14.68;9.32;;;2.50;99.90;;;;;;5052757;28;20308;-69
2021/12/07 00:32:43;;;;;;;16.92;10.15;;;2.40;99.90;;;;;;5051278;28;20052;-69
2021/12/07 00:37:44;;;;;;;17.27;11.07;;;;;;;;;;5051193;28;20078;-69
2021/12/07 00:40:13;;;;;;;15.13;9.55;;;2.30;99.90;;;;;;5051547;28;20056;-69
2021/12/07 00:42:39;;;;;;;13.55;9.32;;;;;;;;;;5051675;28;20048;-68
2021/12/07 00:45:06;;;;;;;15.40;9.82;;;2.30;99.90;;;;;;5034626;28;20051;-69
2021/12/07 00:47:32;;;;;;;13.20;9.43;;;2.40;99.90;;;;;;5051162;28;20368;-69
2021/12/07 00:49:58;;;;;;;17.00;10.05;;;;;;;;;;5052896;28;20043;-68
2021/12/07 00:52:24;;;;;;;15.32;10.15;;;;;;;;;;5051343;28;20068;-69
2021/12/07 00:54:50;;;;;;;14.15;9.68;;;;;;;;;;5051193;28;20083;-69
2021/12/07 00:57:16;;;;;;;14.57;9.52;;;;;;;;;;5050599;28;20032;-69
2021/12/07 00:59:42;;;;;;;16.10;10.18;;;2.30;99.90;;;;;;5050939;28;20471;-69
2021/12/07 01:02:08;;;;;;;14.85;9.13;;;;;;;;;;5050775;28;20072;-69
2021/12/07 01:04:33;;;;;;;15.75;9.80;;;2.40;99.90;;;;;;5051004;28;20044;-69
2021/12/07 01:07:04;;;;;;;14.90;9.85;;;;;;;;;;5050506;28;20044;-69
2021/12/07 01:24:39;;;;;;;14.65;9.10;;;2.40;99.90;;;;;;5034026;28;20120;-69
2021/12/07 01:26:06;;;;;;;;;;;;;;;;;;5050535;28;20044;-68
2021/12/07 01:28:40;;;;;;;14.13;9.18;;;;;;;;;;5050408;28;19916;-68
2021/12/07 01:34:05;;;;;;;12.05;8.90;;;;;;;;;;5050654;28;20080;-68
2021/12/07 01:47:35;;;;;;;13.82;8.93;;;2.50;99.90;;;;;;5050125;28;20043;-68
2021/12/07 01:53:00;;;;;;;13.30;8.85;;;;;;;;;;5050086;28;20052;-68
2021/12/07 02:00:49;;;;;;;13.68;8.70;;;;;;;;;;5054315;28;20045;-68
2021/12/07 02:03:15;;;;;;;13.57;9.27;;;2.60;99.90;;;;;;5054094;28;20045;-68
2021/12/07 02:05:41;;;;;;;12.38;8.68;;;2.40;99.90;;;;;;5037299;28;20052;-67
2021/12/07 02:08:06;;;;;;;12.88;8.77;;;2.40;99.90;;;;;;5037706;28;20552;-67
2021/12/07 02:10:33;;;;;;;12.98;8.63;;;2.70;99.90;;;;;;5037309;28;20091;-67
2021/12/07 02:13:06;;;;;;;13.13;9.02;;;2.50;99.90;;;;;;5054273;28;20044;-67
2021/12/07 02:15:33;;;;;;;12.40;8.05;;;;;;;;;;5053764;28;20036;-68
2021/12/07 02:17:59;;;;;;;11.57;7.93;;;2.40;99.90;;;;;;5054009;28;20053;-68
2021/12/07 02:20:27;;;;;;;12.90;8.85;;;;;;;;;;5053841;28;20086;-68
2021/12/07 02:22:53;;;;;;;13.05;8.60;;;;;;;;;;5053812;28;20055;-67
2021/12/07 02:25:20;;;;;;;11.63;8.27;;;2.40;99.90;;;;;;5054794;28;20037;-67
2021/12/07 02:27:47;;;;;;;10.93;8.20;;;;;;;;;;5053954;28;20041;-68
2021/12/07 02:30:15;;;;;;;13.52;9.00;;;;;;;;;;5053718;28;20562;-67
2021/12/07 02:32:41;;;;;;;11.18;7.88;;;;;;;;;;5053947;28;20446;-68
2021/12/07 02:35:09;;;;;;;10.93;8.23;;;;;;;;;;5053624;28;20052;-67
2021/12/07 02:37:35;;;;;;;12.23;8.27;;;;;;;;;;5053572;28;20048;-68
2021/12/07 02:40:03;;;;;;;13.60;8.35;;;2.50;99.90;;;;;;5053735;28;20053;-68
2021/12/07 02:42:29;;;;;;;12.95;8.60;;;;;;;;;;5053468;28;20516;-67
2021/12/07 02:44:55;;;;;;;11.57;8.52;;;2.60;99.90;;;;;;5053456;28;20045;-67
2021/12/07 02:47:21;;;;;;;9.73;7.10;;;2.60;99.90;;;;;;5053068;28;20043;-68
2021/12/07 02:49:47;;;;;;;12.60;8.32;;;2.50;99.90;;;;;;5054565;28;20041;-67
2021/12/07 02:52:13;;;;;;;10.70;8.05;;;2.30;99.90;;;;;;5052986;28;20461;-67
2021/12/07 02:54:44;;;;;;;10.10;7.43;;;2.60;99.90;;;;;;5054566;28;20080;-67
2021/12/07 02:57:12;;;;;;;13.13;8.10;;;2.70;99.90;;;;;;5053321;28;20037;-67
2021/12/07 02:59:48;;;;;;;11.43;8.20;;;;;;;;;;5036529;28;20044;-67
2021/12/07 03:02:16;;;;;;;13.43;7.97;;;;;;;;;;5053165;28;20479;-67
2021/12/07 03:04:52;;;;;;;12.80;8.55;;;2.60;99.90;;;;;;5053070;28;20036;-69
2021/12/07 03:07:45;;;;;;;10.70;7.57;;;2.40;99.90;;;;;;5036486;28;20375;-67
2021/12/07 03:26:35;;;;;;;12.50;8.32;;;2.20;99.90;;;;;;5052452;28;20132;-67
2021/12/07 03:29:01;;;;;;;11.27;8.43;;;2.20;99.90;;;;;;5052647;28;20465;-67
2021/12/07 03:31:29;;;;;;;9.48;7.60;;;2.20;99.90;;;;;;5052499;28;20087;-67
2021/12/07 03:33:57;;;;;;;9.32;6.93;;;2.30;99.90;;;;;;5052506;28;20041;-69
2021/12/07 03:36:23;;;;;;;12.68;7.80;;;2.30;99.90;;;;;;5052531;28;20041;-67
2021/12/07 03:38:49;;;;;;;10.75;7.72;;;2.40;99.90;;;;;;5052660;28;20498;-67
2021/12/07 03:41:15;;;;;;;10.93;7.85;;;;;;;;;;5052234;28;20033;-67
2021/12/07 03:43:41;;;;;;;11.00;7.80;;;;;;;;;;5052358;28;20033;-67
2021/12/07 03:46:08;;;;;;;14.30;9.45;;;;;;;;;;5052221;28;20128;-67
2021/12/07 03:48:34;;;;;;;12.55;7.53;;;2.50;99.90;;;;;;5052356;28;20041;-67
2021/12/07 03:51:00;;;;;;;11.98;8.85;;;2.50;99.90;;;;;;5052195;28;20048;-67
2021/12/07 03:53:30;;;;;;;13.60;8.50;;;;;;;;;;5051983;28;20067;-67
2021/12/07 03:55:57;;;;;;;12.50;8.35;;;2.60;99.90;;;;;;5052168;28;20048;-67
2021/12/07 03:58:23;;;;;;;11.65;7.93;;;2.60;99.90;;;;;;5052229;28;20126;-67
2021/12/07 04:00:49;;;;;;;13.57;8.95;;;;;;;;;;5051994;28;20099;-67
2021/12/07 04:03:16;;;;;;;12.55;7.82;;;;;;;;;;5052051;28;20041;-67
2021/12/07 04:05:45;;;;;;;13.85;8.70;;;2.60;99.90;;;;;;5051983;28;20091;-67
2021/12/07 04:08:15;;;;;;;17.17;8.85;;;;;;;;;;5053333;28;20380;-67
2021/12/07 04:10:42;;;;;;;13.98;8.13;;;;;;;;;;5051792;28;20045;-68
2021/12/07 04:13:09;;;;;;;15.68;8.38;;;;;;;;;;5035233;28;20086;-67
2021/12/07 04:15:35;;;;;;;14.10;8.68;;;;;;;;;;5052479;28;20041;-67
2021/12/07 04:18:01;;;;;;;15.82;8.73;;;2.40;99.90;;;;;;5051709;28;20144;-67
2021/12/07 04:20:27;;;;;;;13.13;7.97;;;2.50;99.90;;;;;;5053175;28;20044;-67
2021/12/07 04:22:54;;;;;;;13.45;7.82;;;;;;;;;;5051931;28;20044;-67
2021/12/07 04:25:20;;;;;;;18.30;9.43;;;2.60;99.90;;;;;;5053196;28;20044;-66
2021/12/07 04:27:46;;;;;;;14.60;8.23;;;2.60;99.90;;;;;;5051754;28;20033;-67
2021/12/07 04:30:16;;;;;;;16.08;8.63;;;2.60;99.90;;;;;;5051597;28;20044;-67
2021/12/07 04:32:42;;;;;;;14.75;8.23;;;2.60;99.90;;;;;;5051630;28;20040;-67
2021/12/07 04:35:10;;;;;;;12.18;7.57;;;;;;;;;;5051282;28;20124;-67
2021/12/07 04:37:36;;;;;;;15.35;8.70;;;2.50;99.90;;;;;;5052294;28;20076;-67
2021/12/07 04:40:03;;;;;;;13.55;7.85;;;2.70;99.90;;;;;;5051134;28;20075;-67
2021/12/07 04:42:29;;;;;;;13.55;7.20;;;;;;;;;;5034548;28;20053;-67
2021/12/07 04:44:59;;;;;;;14.25;7.50;;;2.40;99.90;;;;;;5051129;28;20059;-68
2021/12/07 04:47:36;;;;;;;13.52;7.75;;;2.30;99.90;;;;;;5050809;28;20037;-67
2021/12/07 04:50:27;;;;;;;13.48;7.15;;;2.30;99.90;;;;;;5051138;28;20052;-67
2021/12/07 04:58:19;;;;;;;12.30;6.95;;;;;;;;;;5050909;28;20087;-68
2021/12/07 05:00:45;;;;;;;12.05;7.32;;;;;;;;;;5050980;28;20402;-67
2021/12/07 05:03:14;;;;;;;14.40;7.47;;;;;;;;;;5050747;28;20056;-67
2021/12/07 05:05:46;;;;;;;14.52;6.55;;;;;;;;;;5050498;28;20041;-67
2021/12/07 05:08:15;;;;;;;13.23;6.80;;;2.90;99.90;;;;;;5051077;28;20048;-67
2021/12/07 05:13:35;;;;;;;11.60;6.20;;;2.60;99.90;;;;;;5040939;28;20529;-67
2021/12/07 05:16:23;;;;;;;13.75;6.60;;;2.60;99.90;;;;;;5050423;28;20498;-67
2021/12/07 05:19:00;;;;;;;12.75;6.38;;;;;;;;;;5050861;28;20044;-67
2021/12/07 05:24:22;;;;;;;12.48;6.22;;;;;;;;;;5050631;28;20037;-67
2021/12/07 05:37:42;;;;;;;12.32;5.63;;;;;;;;;;5050768;28;20103;-67
2021/12/07 05:37:57;;;;;;;15.07;6.15;;;;;;;;;;5050260;28;20045;-67
2021/12/07 05:40:24;;;;;;;11.45;6.18;;;2.60;99.90;;;;;;5050380;28;20051;-67
2021/12/07 05:42:50;;;;;;;11.20;6.18;;;;;;;;;;5050303;28;20127;-67
2021/12/07 05:45:18;;;;;;;12.20;5.72;;;;;;;;;;5050321;28;20068;-67
2021/12/07 05:47:44;;;;;;;12.48;5.97;;;;;;;;;;5050442;28;20037;-67
2021/12/07 05:50:11;;;;;;;11.00;5.25;;;;;;;;;;5051525;28;20053;-67
2021/12/07 05:52:37;;;;;;;13.35;5.60;;;;;;;;;;5049678;28;20101;-67
2021/12/07 05:55:05;;;;;;;11.88;5.47;;;2.70;99.90;;;;;;5050162;28;20128;-67
2021/12/07 05:57:31;;;;;;;12.43;5.47;;;2.70;99.90;;;;;;5049917;28;20041;-67
2021/12/07 05:59:57;;;;;;;15.25;4.82;;;;;;;;;;5071129;22;20052;-70
2021/12/07 06:02:23;;;;;;;16.42;5.95;;;;;;;;;;5013564;28;20045;-68
2021/12/07 06:04:48;;;;;;;15.32;6.65;;;;;;;;;;5013784;28;20045;-70
2021/12/07 06:07:14;;;;;;;14.40;5.50;;;;;;;;;;5013193;28;20487;-68
2021/12/07 06:09:40;;;;;;;11.98;5.05;;;;;;;;;;5013678;28;20136;-69
2021/12/07 06:12:07;;;;;;;11.20;5.68;;;;;;;;;;5013472;28;20518;-68
2021/12/07 06:14:40;;;;;;;16.52;5.78;;;;;;;;;;5013484;28;20092;-68
2021/12/07 06:17:06;;;;;;;14.25;6.20;;;;;;;;;;5013108;28;20046;-68
2021/12/07 06:19:32;;;;;;;16.05;6.72;;;2.90;99.90;;;;;;5031203;28;20116;-68
2021/12/07 06:21:58;;;;;;;12.38;6.75;;;;;;;;;;5013259;28;20045;-68
2021/12/07 06:24:23;;;;;;;15.57;6.72;;;;;;;;;;5031147;28;20029;-70
2021/12/07 06:26:49;;;;;;;14.77;5.95;;;;;;;;;;5013043;28;20120;-68
2021/12/07 06:29:15;;;;;;;17.23;6.95;;;;;;;;;;5013365;28;20483;-68
2021/12/07 06:31:42;;;;;;;16.92;6.80;;;;;;;;;;5013144;28;20444;-68
2021/12/07 06:34:10;;;;;;;11.32;6.78;;;;;;;;;;5013226;28;20128;-68
2021/12/07 06:36:36;;;;;;;21.90;6.65;;;;;;;;;;4996949;28;20045;-68
2021/12/07 06:39:05;;;;;;;17.10;6.93;;;2.70;99.90;;;;;;4997694;28;20394;-68
2021/12/07 06:41:30;;;;;;;20.77;7.43;;;;;;;;;;5033537;28;20186;-70
2021/12/07 06:43:56;;;;;;;14.45;6.20;;;;;;;;;;5017026;28;20042;-68
2021/12/07 06:46:22;;;;;;;12.43;6.18;;;;;;;;;;5016485;28;20037;-68
2021/12/07 06:48:48;;;;;;;14.65;6.18;;;;;;;;;;5016826;28;20037;-69
2021/12/07 06:51:14;;;;;;;13.27;6.50;;;;;;;;;;5016898;28;20052;-68
2021/12/07 06:53:40;;;;;;;16.85;6.28;;;2.60;99.90;;;;;;5016123;28;20033;-68
2021/12/07 06:56:07;;;;;;;16.85;7.15;;;;;;;;;;5016234;28;20499;-69
2021/12/07 06:58:34;;;;;;;14.05;6.93;;;;;;;;;;5016783;28;20107;-68
2021/12/07 07:01:00;;;;;;;15.63;6.07;;;;;;;;;;5016296;28;20041;-69
2021/12/07 07:03:26;;;;;;;21.75;8.05;;;;;;;;;;5016473;28;20511;-69
2021/12/07 07:05:52;;;;;;;15.13;6.90;;;;;;;;;;5000276;28;20087;-69
2021/12/07 07:08:19;;;;;;;17.20;7.07;;;;;;;;;;5016710;28;20041;-69
2021/12/07 07:10:44;;;;;;;15.27;6.32;;;2.40;99.90;;;;;;4999982;28;20037;-68
2021/12/07 07:13:12;;;;;;;19.77;7.07;;;;;;;;;;5016486;28;20037;-69
2021/12/07 07:15:38;;;;;;;13.48;6.30;;;;;;;;;;5016415;28;20526;-68
2021/12/07 07:18:04;;;;;;;14.48;6.28;;;;;;;;;;5016958;28;20124;-68
2021/12/07 07:20:30;;;;;;;14.70;6.65;;;;;;;;;;5016394;28;20180;-68
2021/12/07 07:22:56;;;;;;;13.95;6.88;;;;;;;;;;5016257;28;20511;-68
2021/12/07 07:25:22;;;;;;;14.73;7.10;;;;;;;;;;5015844;28;20046;-68
2021/12/07 07:27:48;;;;;;;15.45;7.03;;;;;;;;;;5016151;28;20037;-68
2021/12/07 07:30:15;;;;;;;17.30;7.60;;;;;;;;;;5016441;28;20119;-69
2021/12/07 07:32:42;;;;;;;18.27;8.93;;;2.10;99.90;;;;;;4999866;28;20048;-68
2021/12/07 07:35:10;;;;;;;26.52;9.43;;;;;;;;;;5016089;28;20041;-68
2021/12/07 07:37:36;;;;;;;14.35;7.28;;;;;;;;;;5015657;28;20073;-69
2021/12/07 07:40:04;;;;;;;18.92;8.73;;;;;;;;;;5016022;28;20140;-68
2021/12/07 07:42:30;;;;;;;15.05;7.45;;;;;;;;;;5015937;28;20108;-69
2021/12/07 07:44:56;;;;;;;17.60;7.95;;;;;;;;;;5016011;28;20137;-69
2021/12/07 07:47:22;;;;;;;16.58;7.93;;;;;;;;;;5015686;28;20039;-68
2021/12/07 07:49:47;;;;;;;15.23;7.43;;;2.20;99.90;;;;;;5015648;28;20487;-68
2021/12/07 07:52:13;;;;;;;19.77;7.10;;;;;;;;;;5014538;28;20037;-69
2021/12/07 07:54:39;;;;;;;17.08;7.45;;;;;;;;;;5015760;28;20072;-69
2021/12/07 07:57:05;;;;;;;17.48;7.57;;;;;;;;;;5015355;28;20080;-68
2021/12/07 07:59:31;;;;;;;12.88;6.35;;;;;;;;;;5015772;28;20041;-68
2021/12/07 08:01:57;;;;;;;15.75;7.03;;;;;;;;;;5015177;28;20129;-68
2021/12/07 08:04:23;;;;;;;18.02;7.35;;;;;;;;;;5015308;28;20037;-68
2021/12/07 08:06:49;;;;;;;20.98;7.15;;;;;;;;;;5015388;28;20091;-68
2021/12/07 08:09:16;;;;;;;19.15;8.15;;;;;;;;;;5015380;28;20139;-70
2021/12/07 08:11:42;;;;;;;14.93;6.68;;;;;;;;;;5015174;28;20042;-68
2021/12/07 08:14:08;;;;;;;18.73;6.50;;;;;;;;;;5015371;28;20049;-69
2021/12/07 08:16:34;;;;;;;15.68;5.55;;;;;;;;;;5032854;28;20045;-70
2021/12/07 08:19:01;;;;;;;13.68;5.50;;;2.10;99.90;;;;;;5015326;28;20053;-68
2021/12/07 08:21:27;;;;;;;14.82;5.72;;;;;;;;;;5014934;28;20041;-68
2021/12/07 08:23:53;;;;;;;18.98;6.13;;;;;;;;;;5015253;28;20056;-70
2021/12/07 08:26:20;;;;;;;16.98;6.05;;;;;;;;;;5014972;28;20597;-68
2021/12/07 08:28:46;;;;;;;11.25;4.88;;;;;;;;;;5015251;28;20049;-70
2021/12/07 08:31:12;;;;;;;17.13;5.15;;;;;;;;;;5014999;28;20667;-69
2021/12/07 08:33:38;;;;;;;14.07;5.57;;;;;;;;;;5014933;28;20041;-69
2021/12/07 08:36:04;;;;;;;13.80;5.00;;;2.20;99.90;;;;;;5014565;28;20064;-69
2021/12/07 08:38:31;;;;;;;13.40;4.63;;;;;;;;;;4998524;28;20095;-69
2021/12/07 08:40:57;;;;;;;17.33;5.47;;;;;;;;;;5014767;28;20236;-69
2021/12/07 08:43:25;;;;;;;13.65;4.95;;;;;;;;;;5014601;28;20045;-70
2021/12/07 08:45:51;;;;;;;10.68;5.20;;;;;;;;;;5014422;28;20037;-69
2021/12/07 08:48:18;;;;;;;7.50;3.85;;;;;;;;;;5014467;28;20069;-69
2021/12/07 08:50:44;;;;;;;7.43;3.92;;;2.50;99.90;;;;;;4998116;28;20060;-70
2021/12/07 08:53:12;;;;;;;12.50;4.22;;;;;;;;;;5030476;28;20037;-68
2021/12/07 09:01:09;;;;;;;7.63;3.60;;;2.90;99.90;;;;;;5014305;28;20045;-69
2021/12/07 09:03:35;;;;;;;14.60;4.28;;;;;;;;;;5014095;28;20033;-68
2021/12/07 09:06:01;;;;;;;10.75;4.20;;;;;;;;;;5014041;28;20041;-68
2021/12/07 09:08:27;;;;;;;12.88;4.47;;;;;;;;;;4998122;28;20171;-68
2021/12/07 09:10:53;;;;;;;15.90;3.53;;;;;;;;;;5014135;28;20041;-69
2021/12/07 09:13:20;;;;;;;12.98;4.00;;;;;;;;;;5014185;28;20037;-68
2021/12/07 09:15:46;;;;;;;13.02;3.80;;;;;;;;;;5013975;28;20042;-68
2021/12/07 09:18:12;;;;;;;19.92;6.82;;;3.20;99.90;;;;;;5014041;28;20052;-68
2021/12/07 09:20:38;;;;;;;21.13;3.42;;;;;;;;;;5014352;28;20033;-68
2021/12/07 09:23:04;;;;;;;8.75;3.10;;;;;;;;;;5031684;28;20053;-69
2021/12/07 09:25:30;;;;;;;13.63;3.90;;;;;;;;;;5013614;28;20045;-68
2021/12/07 09:27:57;;;;;;;10.98;4.03;;;;;;;;;;5013877;28;20044;-68
2021/12/07 09:30:23;;;;;;;17.00;3.67;;;3.70;99.90;;;;;;5031650;28;20091;-68
2021/12/07 09:32:50;;;;;;;10.57;4.00;;;;;;;;;;5014212;28;20410;-68
2021/12/07 09:35:16;;;;;;;13.38;3.83;;;;;;;;;;5013930;28;20432;-66
2021/12/07 09:37:42;;;;;;;16.33;3.63;;;;;;;;;;5031487;28;20084;-69
2021/12/07 09:40:11;;;;;;;14.55;4.03;;;;;;;;;;5013931;28;20049;-69
2021/12/07 09:42:37;;;;;;;11.63;4.20;;;;;;;;;;5013593;28;20586;-68
2021/12/07 09:45:06;;;;;;;8.23;3.15;;;3.80;99.90;;;;;;5014115;28;20073;-69
2021/12/07 09:47:32;;;;;;;16.35;4.00;;;;;;;;;;5013905;28;20044;-68
2021/12/07 09:49:59;;;;;;;14.43;4.40;;;;;;;;;;5013971;28;20041;-68
2021/12/07 09:52:25;;;;;;;9.15;3.95;;;;;;;;;;5013232;28;20067;-68
2021/12/07 09:54:52;;;;;;;9.55;3.97;;;;;;;;;;4997448;28;20407;-68
2021/12/07 09:57:18;;;;;;;12.27;3.40;;;;;;;;;;5013505;28;20056;-68
2021/12/07 09:59:44;;;;;;;13.95;3.72;;;;;;;;;;4997555;28;20037;-68
2021/12/07 10:02:11;;;;;;;8.55;3.90;;;;;;;;;;5013529;28;20049;-68
2021/12/07 10:04:36;;;;;;;10.07;3.30;;;;;;;;;;5013578;28;20045;-68
2021/12/07 10:07:03;;;;;;;14.85;4.70;;;3.80;99.90;;;;;;5013500;28;20038;-69
2021/12/07 10:09:29;;;;;;;12.40;3.75;;;;;;;;;;5013450;28;20495;-67
2021/12/07 10:11:56;;;;;;;18.60;4.47;;;;;;;;;;5013707;28;20049;-69
2021/12/07 10:14:22;;;;;;;9.43;3.35;;;;;;;;;;5014526;28;20044;-69
2021/12/07 10:16:50;;;;;;;12.48;3.90;;;;;;;;;;5035041;28;20095;-69
2021/12/07 10:19:29;;;;;;;10.85;4.07;;;;;;;;;;5017510;28;20045;-69
2021/12/07 10:22:04;;;;;;;19.20;4.57;;;;;;;;;;5017094;28;20095;-69
2021/12/07 10:24:38;;;;;;;11.10;3.90;;;;;;;;;;5017126;28;20514;-68
2021/12/07 10:27:05;;;;;;;12.85;4.22;;;;;;;;;;5016916;28;20052;-69
2021/12/07 10:29:31;;;;;;;12.75;4.07;;;;;;;;;;5017119;28;20043;-70
2021/12/07 10:32:00;;;;;;;14.50;3.50;;;;;;;;;;5017070;28;20128;-69
2021/12/07 10:34:29;;;;;;;10.32;3.25;;;;;;;;;;5017410;28;20141;-69
2021/12/07 10:37:10;;;;;;;10.20;3.42;;;4.00;99.90;;;;;;5034448;28;20518;-70
2021/12/07 10:39:42;;;;;;;14.02;4.30;;;;;;;;;;5033328;28;20056;-69
2021/12/07 10:42:20;;;;;;;14.93;4.18;;;4.20;99.90;;;;;;5016840;28;20049;-69
2021/12/07 10:44:47;;;;;;;10.73;3.63;;;4.40;99.90;;;;;;5000507;28;20045;-69
2021/12/07 10:47:14;;;;;;;20.10;3.72;;;;;;;;;;5033314;28;20064;-67
2021/12/07 10:49:41;;;;;;;14.57;4.05;;;;;;;;;;5016827;28;20120;-70
2021/12/07 10:52:32;;;;;;;19.80;4.25;;;4.50;99.90;;;;;;5016389;28;20057;-69
2021/12/07 10:55:00;;;;;;;13.63;3.97;;;;;;;;;;5000221;28;20037;-69
2021/12/07 10:57:29;;;;;;;13.50;4.05;;;;;;;;;;5016327;28;20137;-70
2021/12/07 10:59:58;;;;;;;12.45;4.70;;;4.90;99.90;;;;;;5000116;28;20095;-69
2021/12/07 11:02:25;;;;;;;8.77;3.50;;;;;;;;;;5016649;28;20068;-68
2021/12/07 11:04:51;;;;;;;16.10;3.75;;;5.10;99.90;;;;;;5016730;28;20468;-70
2021/12/07 11:07:20;;;;;;;11.80;3.90;;;;;;;;;;5032584;28;20041;-69
2021/12/07 11:13:34;;;;;;;13.57;3.65;;;5.10;99.90;;;;;;5016592;28;20133;-69
2021/12/07 11:15:41;;;;;;;13.02;3.65;;;;;;;;;;5010691;28;20103;-69
2021/12/07 11:18:09;;;;;;;16.00;4.40;;;;;;;;;;5016293;28;20053;-69
2021/12/07 11:20:36;;;;;;;24.85;4.55;;;;;;;;;;5016357;28;20049;-70
2021/12/07 11:23:12;;;;;;;14.27;4.10;;;;;;;;;;5015990;28;20133;-70
2021/12/07 11:31:20;;;;;;;15.95;4.10;;;;;;;;;;5016381;28;20134;-69
2021/12/07 11:33:46;;;;;;;12.80;3.38;;;;;;;;;;5016180;28;20052;-68
2021/12/07 11:36:15;;;;;;;22.55;4.82;;;5.30;99.90;;;;;;5015827;28;20041;-69
2021/12/07 11:38:41;;;;;;;9.35;3.75;;;;;;;;;;4999728;28;20052;-69
2021/12/07 11:41:13;;;;;;;16.75;4.68;;;;;;;;;;4999545;28;20422;-70
2021/12/07 11:43:49;;;;;;;16.55;4.38;;;;;;;;;;5015706;28;20056;-70
2021/12/07 11:46:19;;;;;;;14.73;4.55;;;;;;;;;;5015628;28;20041;-72
2021/12/07 11:48:45;;;;;;;13.13;4.20;;;;;;;;;;5015647;28;20037;-70
2021/12/07 11:51:11;;;;;;;13.90;4.07;;;;;;;;;;5015809;28;20407;-72
2021/12/07 11:53:37;;;;;;;13.80;4.32;;;;;;;;;;5015077;28;20045;-69
2021/12/07 11:56:03;;;;;;;14.60;4.53;;;;;;;;;;5015362;28;20041;-70
2021/12/07 11:58:29;;;;;;;15.65;4.32;;;;;;;;;;5015631;28;20041;-70
2021/12/07 12:00:57;;;;;;;13.23;4.15;;;;;;;;;;5047908;23;20513;-67
2021/12/07 12:03:24;;;;;;;16.75;4.03;;;5.50;99.90;;;;;;5068570;28;20055;-67
2021/12/07 12:05:52;;;;;;;16.63;4.13;;;5.50;99.90;;;;;;5051632;28;20052;-67
2021/12/07 12:08:20;;;;;;;22.23;3.85;;;5.60;99.90;;;;;;5051891;28;20045;-67
2021/12/07 12:10:54;;;;;;;15.15;4.40;;;;;;;;;;5052339;28;20758;-66
2021/12/07 12:13:41;;;;;;;15.25;3.67;;;;;;;;;;5053431;28;20052;-67
2021/12/07 12:16:21;;;;;;;10.15;3.20;;;5.80;99.90;;;;;;5052880;28;20036;-67
2021/12/07 12:19:07;;;;;;;12.98;3.75;;;;;;;;;;5053031;28;20043;-67
2021/12/07 12:21:47;;;;;;;12.93;4.18;;;;;;;;;;5051486;28;20110;-67
2021/12/07 12:24:35;;;;;;;11.48;4.18;;;5.80;99.90;;;;;;5051843;28;20099;-67
2021/12/07 12:27:07;;;;;;;11.35;3.60;;;;;;;;;;5051385;28;20119;-67
2021/12/07 12:29:36;;;;;;;11.55;4.55;;;5.70;99.90;;;;;;5051839;28;20384;-67
2021/12/07 12:32:02;;;;;;;11.13;3.70;;;5.60;99.90;;;;;;5068202;28;20458;-67
2021/12/07 12:34:31;;;;;;;14.80;3.88;;;5.70;99.90;;;;;;5068572;28;20403;-68
2021/12/07 12:37:21;;;;;;;13.98;4.75;;;5.80;99.90;;;;;;5050846;28;20044;-68
2021/12/07 12:40:06;;;;;;;18.63;4.55;;;;;;;;;;5052040;28;20457;-68
2021/12/07 12:42:32;;;;;;;17.83;4.63;;;;;;;;;;5051490;28;20509;-68
2021/12/07 12:45:23;;;;;;;15.13;4.70;;;;;;;;;;5051363;28;20032;-68
2021/12/07 12:48:08;;;;;;;19.88;5.03;;;;;;;;;;5051580;28;20055;-68
2021/12/07 12:50:37;;;;;;;12.70;4.53;;;5.50;99.90;;;;;;5051102;28;20045;-68
2021/12/07 12:53:08;;;;;;;18.35;5.10;;;5.60;99.90;;;;;;5051919;28;20037;-68
2021/12/07 12:55:43;;;;;;;14.88;4.45;;;5.70;99.90;;;;;;5050868;28;20044;-68
2021/12/07 12:58:11;;;;;;;14.98;3.97;;;;;;;;;;5051145;28;20123;-68
2021/12/07 13:00:57;;;;;;;9.77;3.80;;;5.60;99.90;;;;;;5052303;28;20410;-68
2021/12/07 13:03:22;;;;;;;25.25;5.43;;;5.70;99.90;;;;;;5050872;28;20094;-68
2021/12/07 13:06:00;;;;;;;15.48;4.25;;;;;;;;;;5050678;28;20045;-68
2021/12/07 13:08:26;;;;;;;13.13;3.60;;;;;;;;;;5051125;28;20414;-69
2021/12/07 13:10:59;;;;;;;14.80;4.35;;;;;;;;;;5050930;28;20033;-67
2021/12/07 13:13:31;;;;;;;10.43;3.17;;;;;;;;;;5050980;28;20048;-67
2021/12/07 13:15:58;;;;;;;15.73;3.95;;;;;;;;;;5051763;28;20037;-67
2021/12/07 13:18:32;;;;;;;7.72;3.05;;;5.70;99.90;;;;;;5052599;28;20353;-68
2021/12/07 13:20:58;;;;;;;14.32;3.60;;;;;;;;;;5050944;28;20044;-68
2021/12/07 13:23:31;;;;;;;18.35;3.92;;;;;;;;;;5034689;28;20049;-68
2021/12/07 13:25:58;;;;;;;10.93;3.92;;;;;;;;;;5034621;28;20128;-68
2021/12/07 13:28:28;;;;;;;9.82;3.03;;;;;;;;;;5034582;28;20076;-68
2021/12/07 13:30:54;;;;;;;11.43;3.50;;;;;;;;;;5050733;28;20044;-68
2021/12/07 13:33:23;;;;;;;12.93;3.63;;;;;;;;;;5050803;28;20348;-68
2021/12/07 13:35:50;;;;;;;12.63;3.28;;;5.70;99.90;;;;;;5050158;28;20048;-68
2021/12/07 13:38:22;;;;;;;15.05;3.60;;;5.50;99.90;;;;;;5067209;28;20037;-68
2021/12/07 13:40:49;;;;;;;10.73;3.55;;;;;;;;;;5051705;28;20525;-68
2021/12/07 13:43:35;;;;;;;9.65;3.65;;;5.70;99.90;;;;;;5050301;28;20098;-68
2021/12/07 13:46:13;;;;;;;12.55;3.67;;;5.60;99.90;;;;;;5050258;28;20041;-68
2021/12/07 13:48:41;;;;;;;13.60;3.85;;;5.60;99.90;;;;;;5066523;28;20041;-68
2021/12/07 13:51:08;;;;;;;20.25;4.35;;;;;;;;;;5050260;28;20094;-68
2021/12/07 13:53:35;;;;;;;13.32;4.20;;;5.40;99.90;;;;;;5051304;28;20080;-68
2021/12/07 13:56:01;;;;;;;12.73;4.28;;;;;;;;;;5049901;28;20045;-68
2021/12/07 13:58:31;;;;;;;16.73;4.45;;;5.40;99.90;;;;;;5033788;28;20049;-68
2021/12/07 14:01:01;;;;;;;13.68;4.18;;;5.30;99.90;;;;;;5049999;28;20041;-68
2021/12/07 14:03:27;;;;;;;13.60;4.00;;;5.30;99.90;;;;;;5050001;28;20048;-68
2021/12/07 14:05:53;;;;;;;12.48;3.63;;;;;;;;;;5049791;28;20037;-68
2021/12/07 14:08:19;;;;;;;11.65;4.13;;;;;;;;;;5050167;28;20044;-68
2021/12/07 14:10:51;;;;;;;16.73;4.20;;;5.20;99.90;;;;;;5050231;28;20601;-68
2021/12/07 14:13:19;;;;;;;15.05;4.15;;;;;;;;;;5050082;28;20045;-68
2021/12/07 14:15:47;;;;;;;20.48;4.65;;;5.30;99.90;;;;;;5049720;28;20175;-68
2021/12/07 14:18:15;;;;;;;16.85;4.72;;;;;;;;;;5067039;28;20041;-68
2021/12/07 14:20:55;;;;;;;15.52;4.25;;;5.10;99.90;;;;;;5033456;28;20045;-68
2021/12/07 14:23:24;;;;;;;13.57;4.63;;;5.00;99.90;;;;;;5051155;28;20498;-68
2021/12/07 14:25:58;;;;;;;14.35;4.57;;;5.30;99.90;;;;;;5051054;28;20076;-68
2021/12/07 14:28:30;;;;;;;11.60;4.53;;;;;;;;;;5050300;28;20041;-68
2021/12/07 14:31:06;;;;;;;18.50;5.43;;;5.00;99.90;;;;;;5050277;28;20122;-68
2021/12/07 14:33:35;;;;;;;11.02;4.28;;;;;;;;;;5050206;28;20048;-68
2021/12/07 14:36:02;;;;;;;13.85;4.32;;;4.90;99.90;;;;;;5049750;28;20041;-68
2021/12/07 14:38:32;;;;;;;10.20;4.70;;;;;;;;;;5051466;28;20120;-68
2021/12/07 14:41:13;;;;;;;13.18;4.30;;;4.80;99.90;;;;;;5033560;28;20045;-68
2021/12/07 14:43:41;;;;;;;19.10;4.80;;;;;;;;;;5066711;28;20056;-68
2021/12/07 14:46:12;;;;;;;13.85;5.05;;;4.90;99.90;;;;;;5051021;28;20037;-69
2021/12/07 14:48:40;;;;;;;20.77;5.82;;;4.70;99.90;;;;;;5066637;28;20091;-66
2021/12/07 14:51:16;;;;;;;13.65;4.97;;;;;;;;;;5049921;28;20041;-67
2021/12/07 14:53:46;;;;;;;19.50;6.07;;;4.90;99.90;;;;;;5049623;28;20044;-67
2021/12/07 14:56:13;;;;;;;17.45;4.68;;;4.90;99.90;;;;;;5066260;28;20096;-69
2021/12/07 14:58:41;;;;;;;23.02;6.28;;;4.70;99.90;;;;;;5050026;28;20106;-69
2021/12/07 15:01:13;;;;;;;18.42;6.60;;;4.80;99.90;;;;;;5052050;28;20406;-69
2021/12/07 15:03:42;;;;;;;19.85;6.90;;;4.50;99.90;;;;;;5053377;28;20053;-69
2021/12/07 15:06:09;;;;;;;21.05;8.10;;;4.70;99.90;;;;;;5069604;28;20044;-69
2021/12/07 15:08:36;;;;;;;22.77;8.02;;;;;;;;;;5069856;28;20093;-69
2021/12/07 15:11:03;;;;;;;21.35;7.95;;;4.40;99.90;;;;;;5053081;28;20048;-69
2021/12/07 15:13:28;;;;;;;16.27;8.13;;;4.40;99.90;;;;;;5053203;28;20123;-69
2021/12/07 15:15:57;;;;;;;25.17;8.98;;;4.60;99.90;;;;;;5054271;28;20202;-69
2021/12/07 15:18:38;;;;;;;24.45;8.68;;;;;;;;;;5070049;28;20398;-69
2021/12/07 15:21:04;;;;;;;19.00;8.32;;;;;;;;;;5053169;28;20133;-69
2021/12/07 15:23:30;;;;;;;21.83;8.77;;;4.50;99.90;;;;;;5053127;28;20049;-69
2021/12/07 15:25:57;;;;;;;31.25;9.75;;;4.30;99.90;;;;;;5052729;28;20041;-69